Time;durP1;ratioP1;P1;durP2;ratioP2;P2;SDS_P1;SDS_P2;PMS_P1;PMS_P2;Temp;Humidity;BMP_temperature;BMP_pressure;BME280_temperature;BME280_humidity;BME280_pressure;Samples;Min_cycle;Max_cycle;Signal;HPM_P1;HPM_P2
2024/03/08 00:01:11;;;;;;;48.08;21.45;;;;;;;;;;5055539;28;20063;-76
2024/03/08 00:03:37;;;;;;;43.20;22.88;;;;;;;;;;5055296;28;20025;-76
2024/03/08 00:06:04;;;;;;;53.83;25.77;;;;;;;;;;5055804;28;20031;-76
2024/03/08 00:08:30;;;;;;;54.22;24.35;;;;;;;;;;5053613;28;20486;-76
2024/03/08 00:10:56;;;;;;;46.80;24.15;;;;;;;;;;5054337;28;20467;-75
2024/03/08 00:13:24;;;;;;;59.83;28.10;;;;;;;;;;5053633;28;20021;-82
2024/03/08 00:15:50;;;;;;;52.42;27.27;;;;;;;;;;5055621;28;20026;-81
2024/03/08 00:18:16;;;;;;;51.83;27.27;;;;;;;;;;5052928;28;20486;-77
2024/03/08 00:20:44;;;;;;;56.50;25.65;;;;;;;;;;5060282;28;20031;-82
2024/03/08 00:23:10;;;;;;;59.03;26.00;;;;;;;;;;5056570;28;20031;-81
2024/03/08 00:25:37;;;;;;;57.08;27.85;;;;;;;;;;5065918;28;20021;-81
2024/03/08 00:28:04;;;;;;;55.72;26.73;;;;;;;;;;5064893;28;20359;-82
2024/03/08 00:30:31;;;;;;;54.75;24.95;;;;;;;;;;5065783;28;20037;-82
2024/03/08 00:32:57;;;;;;;53.92;26.63;;;;;;;;;;5065236;28;20021;-76
2024/03/08 00:35:23;;;;;;;49.28;25.42;;;;;;;;;;5064552;28;20390;-76
2024/03/08 00:37:50;;;;;;;52.92;27.52;;;;;;;;;;5064508;28;20528;-76
2024/03/08 00:40:16;;;;;;;50.35;25.75;;;;;;;;;;5057297;28;20013;-81
2024/03/08 00:42:43;;;;;;;53.42;26.58;;;;;;;;;;5051179;28;20018;-76
2024/03/08 00:45:10;;;;;;;53.30;25.08;;;;;;;;;;5054764;28;20017;-76
2024/03/08 00:47:36;;;;;;;58.30;24.73;;;;;;;;;;5062216;28;20504;-76
2024/03/08 00:50:03;;;;;;;55.40;24.48;;;;;;;;;;5068835;28;20120;-81
2024/03/08 00:52:29;;;;;;;54.03;25.33;;;;;;;;;;5058347;28;20056;-76
2024/03/08 00:54:56;;;;;;;48.90;24.20;;;;;;;;;;5058584;28;20490;-82
2024/03/08 00:57:22;;;;;;;49.42;24.75;;;;;;;;;;5067195;28;20021;-82
2024/03/08 00:59:48;;;;;;;49.50;25.23;;;;;;;;;;5065612;28;20549;-82
2024/03/08 01:02:14;;;;;;;42.58;24.08;;;;;;;;;;5067024;28;20047;-82
2024/03/08 01:04:40;;;;;;;45.88;23.25;;;;;;;;;;5064276;28;20470;-82
2024/03/08 01:07:06;;;;;;;53.78;25.10;;;;;;;;;;5066254;28;20031;-76
2024/03/08 01:09:32;;;;;;;49.40;24.58;;;;;;;;;;5066045;28;20055;-77
2024/03/08 01:11:58;;;;;;;53.55;25.17;;;;;;;;;;5066915;28;20081;-82
2024/03/08 01:14:29;;;;;;;50.85;26.55;;;;;;;;;;5057876;28;20111;-77
2024/03/08 01:16:55;;;;;;;43.40;23.35;;;;;;;;;;5061460;28;20032;-80
2024/03/08 01:19:21;;;;;;;43.70;21.90;;;;;;;;;;5056828;28;20119;-80
2024/03/08 01:21:47;;;;;;;47.97;25.45;;;;;;;;;;5054283;28;20100;-74
2024/03/08 01:24:13;;;;;;;44.10;20.85;;;;;;;;;;5053345;28;20405;-74
2024/03/08 01:26:39;;;;;;;44.50;20.55;;;;;;;;;;5053086;28;20029;-81
2024/03/08 01:29:05;;;;;;;47.28;22.95;;;;;;;;;;5060178;28;20025;-81
2024/03/08 01:31:31;;;;;;;45.08;21.58;;;;;;;;;;5065053;28;20087;-80
2024/03/08 01:33:58;;;;;;;48.15;23.02;;;;;;;;;;5061805;28;20425;-75
2024/03/08 01:36:24;;;;;;;39.90;22.20;;;;;;;;;;5054270;28;20048;-75
2024/03/08 01:38:50;;;;;;;42.55;21.05;;;;;;;;;;5051717;28;20017;-80
2024/03/08 01:41:17;;;;;;;48.38;22.65;;;;;;;;;;5054751;28;20522;-80
2024/03/08 01:43:43;;;;;;;43.63;21.77;;;;;;;;;;5056915;28;20124;-81
2024/03/08 01:46:10;;;;;;;42.60;21.67;;;;;;;;;;5054354;28;20013;-80
2024/03/08 01:48:36;;;;;;;41.30;22.60;;;;;;;;;;5052188;28;20028;-75
2024/03/08 01:51:02;;;;;;;41.28;20.70;;;;;;;;;;5054705;28;20017;-75
2024/03/08 01:53:29;;;;;;;44.85;21.92;;;;;;;;;;5058718;28;20036;-75
2024/03/08 01:55:57;;;;;;;45.95;21.15;;;;;;;;;;5058315;28;20127;-74
2024/03/08 01:58:23;;;;;;;41.30;21.50;;;;;;;;;;5057716;28;20489;-79
2024/03/08 02:00:49;;;;;;;40.92;21.17;;;;;;;;;;5059899;28;20225;-79
2024/03/08 02:03:16;;;;;;;47.17;21.33;;;;;;;;;;5064713;28;20043;-74
2024/03/08 02:05:43;;;;;;;41.58;20.27;;;;;;;;;;5060694;28;20147;-74
2024/03/08 02:08:13;;;;;;;40.30;20.83;;;;;;;;;;5053605;28;20022;-79
2024/03/08 02:10:39;;;;;;;33.97;18.10;;;;;;;;;;5056540;28;20127;-79
2024/03/08 02:13:05;;;;;;;43.78;19.65;;;;;;;;;;5055870;28;20013;-80
2024/03/08 02:15:50;;;;;;;32.42;17.02;;;;;;;;;;5056047;28;20566;-74
2024/03/08 02:18:19;;;;;;;38.78;18.80;;;;;;;;;;5054114;28;20427;-79
2024/03/08 02:20:54;;;;;;;46.40;21.45;;;;;;;;;;5064339;28;20028;-79
2024/03/08 02:23:21;;;;;;;44.58;19.63;;;;;;;;;;5057054;28;20036;-80
2024/03/08 02:25:47;;;;;;;35.95;19.25;;;;;;;;;;5062971;28;20017;-79
2024/03/08 02:28:14;;;;;;;40.13;20.17;;;;;;;;;;5060131;28;20475;-79
2024/03/08 02:30:40;;;;;;;36.08;18.73;;;;;;;;;;5042164;28;20490;-79
2024/03/08 02:33:07;;;;;;;35.22;18.60;;;;;;;;;;5051050;28;20079;-74
2024/03/08 02:35:33;;;;;;;40.30;19.80;;;;;;;;;;5066292;28;20070;-74
2024/03/08 02:38:00;;;;;;;40.88;20.20;;;;;;;;;;5060852;28;20021;-74
2024/03/08 02:40:26;;;;;;;36.15;18.92;;;;;;;;;;5052995;28;20041;-79
2024/03/08 02:42:52;;;;;;;35.83;19.95;;;;;;;;;;5051701;28;20067;-80
2024/03/08 02:45:18;;;;;;;34.15;19.23;;;;;;;;;;5056953;28;20158;-79
2024/03/08 02:47:45;;;;;;;35.08;18.52;;;;;;;;;;5050804;28;20029;-80
2024/03/08 02:50:11;;;;;;;35.60;17.83;;;;;;;;;;5058025;28;20070;-80
2024/03/08 02:52:37;;;;;;;33.63;18.77;;;;;;;;;;5070193;28;20020;-80
2024/03/08 02:55:06;;;;;;;34.83;19.83;;;;;;;;;;5057432;28;20027;-74
2024/03/08 02:57:32;;;;;;;32.38;17.42;;;;;;;;;;5063163;28;20033;-74
2024/03/08 02:59:59;;;;;;;35.65;18.70;;;;;;;;;;5066615;28;20090;-80
2024/03/08 03:02:26;;;;;;;39.70;19.67;;;;;;;;;;5055779;28;20025;-79
2024/03/08 03:04:52;;;;;;;38.22;17.45;;;;;;;;;;5057751;28;20044;-74
2024/03/08 03:07:19;;;;;;;36.63;19.02;;;;;;;;;;5055632;28;20083;-79
2024/03/08 03:09:45;;;;;;;36.10;18.42;;;;;;;;;;5064820;28;20055;-73
2024/03/08 03:12:11;;;;;;;34.13;17.40;;;;;;;;;;5065115;28;20016;-73
2024/03/08 03:14:38;;;;;;;36.25;19.33;;;;;;;;;;5058618;28;20025;-74
2024/03/08 03:17:04;;;;;;;40.53;20.85;;;;;;;;;;5053945;28;20067;-75
2024/03/08 03:19:31;;;;;;;38.00;18.17;;;;;;;;;;5056198;28;20036;-79
2024/03/08 03:21:57;;;;;;;32.40;17.92;;;;;;;;;;5065953;28;20031;-75
2024/03/08 03:24:23;;;;;;;38.72;18.73;;;;;;;;;;5064941;28;20121;-74
2024/03/08 03:26:49;;;;;;;33.85;18.52;;;;;;;;;;5063427;28;20021;-75
2024/03/08 03:29:16;;;;;;;36.17;18.65;;;;;;;;;;5060403;28;20396;-80
2024/03/08 03:31:45;;;;;;;35.70;19.73;;;;;;;;;;5061903;28;20123;-75
2024/03/08 03:34:12;;;;;;;33.35;18.67;;;;;;;;;;5059819;28;20021;-75
2024/03/08 03:36:42;;;;;;;38.92;19.40;;;;;;;;;;5060591;28;20029;-80
2024/03/08 03:39:15;;;;;;;33.47;17.92;;;;;;;;;;5062900;28;20036;-80
2024/03/08 03:41:41;;;;;;;31.52;17.75;;;;;;;;;;5067405;28;20021;-80
2024/03/08 03:44:07;;;;;;;39.75;20.25;;;;;;;;;;5070347;28;20056;-80
2024/03/08 03:46:34;;;;;;;36.88;19.38;;;;;;;;;;5066876;28;20429;-80
2024/03/08 03:49:00;;;;;;;36.42;17.52;;;;;;;;;;5061228;28;20043;-80
2024/03/08 03:51:26;;;;;;;31.58;17.90;;;;;;;;;;5066273;28;20480;-79
2024/03/08 03:53:53;;;;;;;27.67;15.73;;;;;;;;;;5053409;28;20021;-74
2024/03/08 03:56:19;;;;;;;34.50;18.05;;;;;;;;;;5055244;28;20021;-75
2024/03/08 03:58:45;;;;;;;38.38;19.17;;;;;;;;;;5054642;28;20029;-80
2024/03/08 04:01:11;;;;;;;31.33;17.25;;;;;;;;;;5069427;28;20016;-80
2024/03/08 04:03:37;;;;;;;31.90;16.52;;;;;;;;;;5071276;28;20035;-74
2024/03/08 04:06:06;;;;;;;28.83;16.10;;;;;;;;;;5057116;28;20525;-74
2024/03/08 04:08:34;;;;;;;34.83;18.88;;;;;;;;;;5061384;28;20021;-80
2024/03/08 04:11:00;;;;;;;40.92;18.90;;;;;;;;;;5064156;28;20036;-75
2024/03/08 04:13:26;;;;;;;31.83;17.20;;;;;;;;;;5064619;28;20025;-75
2024/03/08 04:15:52;;;;;;;34.22;17.75;;;;;;;;;;5060261;28;20142;-75
2024/03/08 04:18:19;;;;;;;33.50;17.73;;;;;;;;;;5059859;28;20040;-80
2024/03/08 04:20:45;;;;;;;39.33;19.33;;;;;;;;;;5056135;28;20020;-74
2024/03/08 04:23:11;;;;;;;34.70;17.98;;;;;;;;;;5062310;28;20378;-80
2024/03/08 04:25:37;;;;;;;33.15;17.77;;;;;;;;;;5058173;28;20386;-75
2024/03/08 04:28:03;;;;;;;33.92;17.48;;;;;;;;;;5068149;28;20047;-74
2024/03/08 04:30:30;;;;;;;38.47;18.00;;;;;;;;;;5063588;28;20494;-74
2024/03/08 04:32:56;;;;;;;34.85;17.23;;;;;;;;;;5067940;28;20044;-74
2024/03/08 04:35:22;;;;;;;38.63;17.80;;;;;;;;;;5063424;28;20035;-74
2024/03/08 04:37:48;;;;;;;31.38;17.50;;;;;;;;;;5060372;28;20119;-74
2024/03/08 04:40:14;;;;;;;36.75;17.15;;;;;;;;;;5064764;28;20430;-74
2024/03/08 04:42:41;;;;;;;33.05;18.15;;;;;;;;;;5067222;28;20027;-74
2024/03/08 04:45:10;;;;;;;29.33;16.25;;;;;;;;;;5062888;28;20021;-79
2024/03/08 04:47:37;;;;;;;38.15;18.63;;;;;;;;;;5062443;28;20028;-79
2024/03/08 04:50:04;;;;;;;31.20;16.85;;;;;;;;;;5053157;28;20037;-74
2024/03/08 04:52:30;;;;;;;33.80;19.70;;;;;;;;;;5063897;28;20020;-74
2024/03/08 04:54:56;;;;;;;35.03;18.48;;;;;;;;;;5067889;28;20021;-79
2024/03/08 04:57:22;;;;;;;33.72;18.70;;;;;;;;;;5059829;28;20017;-79
2024/03/08 04:59:48;;;;;;;34.33;17.27;;;;;;;;;;5053554;28;20376;-79
2024/03/08 05:02:14;;;;;;;29.17;15.63;;;;;;;;;;5055166;28;20029;-80
2024/03/08 05:04:42;;;;;;;27.08;15.35;;;;;;;;;;5054198;28;20029;-80
2024/03/08 05:07:08;;;;;;;32.83;15.65;;;;;;;;;;5055793;28;20028;-80
2024/03/08 05:09:36;;;;;;;31.08;16.77;;;;;;;;;;5055572;28;20037;-79
2024/03/08 05:12:01;;;;;;;32.85;16.25;;;;;;;;;;5055847;28;20044;-74
2024/03/08 05:14:28;;;;;;;34.45;17.33;;;;;;;;;;5054984;28;20437;-80
2024/03/08 05:16:54;;;;;;;30.70;16.70;;;;;;;;;;5056440;28;20075;-80
2024/03/08 05:19:21;;;;;;;30.92;15.80;;;;;;;;;;5055293;28;20028;-74
2024/03/08 05:21:47;;;;;;;32.40;19.50;;;;;;;;;;5054405;28;20025;-74
2024/03/08 05:24:15;;;;;;;32.80;17.10;;;;;;;;;;5062090;28;20009;-80
2024/03/08 05:26:41;;;;;;;28.13;16.05;;;;;;;;;;5064174;28;20024;-79
2024/03/08 05:29:08;;;;;;;28.58;16.52;;;;;;;;;;5068395;28;20458;-74
2024/03/08 05:31:48;;;;;;;32.45;17.20;;;;;;;;;;5059628;28;20150;-79
2024/03/08 05:34:14;;;;;;;32.75;17.83;;;;;;;;;;5053082;28;20056;-74
2024/03/08 05:36:44;;;;;;;30.75;16.00;;;;;;;;;;5056043;28;20012;-75
2024/03/08 05:39:11;;;;;;;33.63;16.40;;;;;;;;;;5052104;28;20024;-74
2024/03/08 05:41:37;;;;;;;32.65;16.80;;;;;;;;;;5054803;28;20021;-74
2024/03/08 05:44:03;;;;;;;30.35;16.63;;;;;;;;;;5052108;28;20051;-74
2024/03/08 05:46:30;;;;;;;32.55;16.33;;;;;;;;;;5053308;28;20059;-74
2024/03/08 05:48:56;;;;;;;31.63;15.95;;;;;;;;;;5052488;28;20455;-75
2024/03/08 05:51:24;;;;;;;27.15;17.23;;;;;;;;;;5068360;28;20028;-79
2024/03/08 05:53:50;;;;;;;27.98;14.95;;;;;;;;;;5061219;28;20017;-74
2024/03/08 05:56:16;;;;;;;28.30;16.15;;;;;;;;;;5052180;28;20025;-73
2024/03/08 05:58:42;;;;;;;30.27;16.45;;;;;;;;;;5043234;28;20075;-79
2024/03/08 06:01:08;;;;;;;27.33;14.30;;;;;;;;;;5050766;28;20032;-80
2024/03/08 06:03:34;;;;;;;29.10;15.52;;;;;;;;;;5052312;28;20060;-74
2024/03/08 06:06:00;;;;;;;31.58;15.55;;;;;;;;;;5046565;28;20074;-74
2024/03/08 06:08:30;;;;;;;26.92;14.25;;;;;;;;;;5056390;28;20445;-80
2024/03/08 06:10:58;;;;;;;30.00;16.20;;;;;;;;;;5056516;28;20043;-75
2024/03/08 06:13:24;;;;;;;28.05;16.08;;;;;;;;;;5054401;28;20032;-80
2024/03/08 06:15:50;;;;;;;29.55;15.48;;;;;;;;;;5056877;28;20029;-80
2024/03/08 06:18:17;;;;;;;33.42;15.27;;;;;;;;;;5059474;28;20029;-81
2024/03/08 06:20:46;;;;;;;25.92;14.02;;;;;;;;;;5060453;28;20024;-81
2024/03/08 06:23:12;;;;;;;27.98;15.70;;;;;;;;;;5047926;28;20036;-80
2024/03/08 06:25:38;;;;;;;28.10;15.27;;;;;;;;;;5047094;28;20079;-79
2024/03/08 06:28:04;;;;;;;25.05;14.45;;;;;;;;;;5042373;28;20017;-80
2024/03/08 06:30:31;;;;;;;32.72;15.75;;;;;;;;;;5049567;28;20029;-80
2024/03/08 06:32:57;;;;;;;28.50;15.70;;;;;;;;;;5055649;28;20033;-80
2024/03/08 06:35:23;;;;;;;30.05;15.02;;;;;;;;;;5050236;28;20479;-75
2024/03/08 06:37:49;;;;;;;25.00;15.88;;;;;;;;;;5050504;28;20039;-74
2024/03/08 06:40:15;;;;;;;29.30;14.73;;;;;;;;;;5050694;28;20505;-73
2024/03/08 06:42:41;;;;;;;29.17;14.82;;;;;;;;;;5050722;28;20030;-74
2024/03/08 06:45:08;;;;;;;25.60;13.93;;;;;;;;;;5055057;28;20016;-74
2024/03/08 06:47:35;;;;;;;28.75;14.80;;;;;;;;;;5062024;28;20029;-74
2024/03/08 06:50:01;;;;;;;25.73;14.75;;;;;;;;;;5059640;28;20086;-74
2024/03/08 06:52:27;;;;;;;28.85;15.55;;;;;;;;;;5066231;28;20107;-80
2024/03/08 06:54:53;;;;;;;25.00;14.48;;;;;;;;;;5059849;28;20082;-80
2024/03/08 06:57:21;;;;;;;28.23;13.70;;;;;;;;;;5061881;28;20086;-80
2024/03/08 06:59:48;;;;;;;28.05;15.48;;;;;;;;;;5065131;28;20016;-75
2024/03/08 07:02:14;;;;;;;25.13;14.30;;;;;;;;;;5054312;28;20482;-74
2024/03/08 07:04:40;;;;;;;29.35;15.63;;;;;;;;;;5054034;28;20036;-80
2024/03/08 07:07:09;;;;;;;28.65;14.48;;;;;;;;;;5054632;28;20107;-80
2024/03/08 07:09:35;;;;;;;29.88;15.18;;;;;;;;;;5058639;28;20025;-80
2024/03/08 07:12:01;;;;;;;29.83;14.55;;;;;;;;;;5061217;28;20031;-80
2024/03/08 07:14:27;;;;;;;30.05;15.35;;;;;;;;;;5060701;28;20025;-80
2024/03/08 07:16:53;;;;;;;28.95;15.90;;;;;;;;;;5064130;28;20016;-79
2024/03/08 07:19:21;;;;;;;27.85;14.93;;;;;;;;;;5052355;28;20603;-76
2024/03/08 07:21:47;;;;;;;24.10;13.90;;;;;;;;;;5055638;28;20024;-79
2024/03/08 07:26:42;;;;;;;31.25;17.10;;;;;;;;;;5060383;28;20025;-75
2024/03/08 07:29:08;;;;;;;31.00;14.77;;;;;;;;;;5046767;28;20498;-75
2024/03/08 07:34:07;;;;;;;26.20;15.95;;;;;;;;;;5040550;28;20168;-77
2024/03/08 07:36:33;;;;;;;22.00;14.07;;;;;;;;;;5064248;28;20025;-76
2024/03/08 07:38:59;;;;;;;29.95;14.80;;;;;;;;;;5057363;28;20108;-76
2024/03/08 07:41:25;;;;;;;31.42;15.05;;;;;;;;;;5067027;28;20029;-75
2024/03/08 07:43:52;;;;;;;27.50;15.55;;;;;;;;;;5069872;28;20052;-75
2024/03/08 07:46:18;;;;;;;47.35;18.70;;;;;;;;;;5070877;28;20073;-77
2024/03/08 07:48:44;;;;;;;70.68;23.33;;;;;;;;;;5064182;28;20018;-75
2024/03/08 07:51:12;;;;;;;39.67;17.98;;;;;;;;;;5067637;28;20492;-74
2024/03/08 07:53:38;;;;;;;40.75;17.70;;;;;;;;;;5038827;28;20438;-74
2024/03/08 07:56:09;;;;;;;68.38;23.35;;;;;;;;;;5058516;28;20419;-76
2024/03/08 07:58:35;;;;;;;53.50;20.23;;;;;;;;;;5060318;28;20021;-74
2024/03/08 08:01:01;;;;;;;63.33;21.23;;;;;;;;;;5060922;28;20466;-76
2024/03/08 08:03:27;;;;;;;86.45;25.73;;;;;;;;;;5068438;28;20028;-76
2024/03/08 08:05:53;;;;;;;115.78;51.65;;;;;;;;;;5057975;28;20524;-75
2024/03/08 08:08:19;;;;;;;100.25;45.20;;;;;;;;;;5063734;28;20021;-75
2024/03/08 08:10:45;;;;;;;78.85;23.08;;;;;;;;;;5058389;28;20047;-74
2024/03/08 08:13:15;;;;;;;116.88;40.30;;;;;;;;;;5060105;28;20021;-77
2024/03/08 08:15:41;;;;;;;59.63;21.50;;;;;;;;;;5050664;28;20056;-75
2024/03/08 08:18:09;;;;;;;68.95;29.85;;;;;;;;;;5062134;28;20083;-76
2024/03/08 08:20:35;;;;;;;83.20;34.60;;;;;;;;;;5056449;28;20585;-79
2024/03/08 08:23:01;;;;;;;83.15;30.95;;;;;;;;;;5056188;28;20479;-78
2024/03/08 08:25:27;;;;;;;74.38;28.75;;;;;;;;;;5054062;28;20024;-77
2024/03/08 08:27:53;;;;;;;67.28;24.08;;;;;;;;;;5051733;28;20119;-77
2024/03/08 08:30:20;;;;;;;87.57;31.25;;;;;;;;;;5055020;28;20037;-77
2024/03/08 08:32:47;;;;;;;58.53;20.42;;;;;;;;;;5051299;28;20071;-75
2024/03/08 08:35:12;;;;;;;61.53;21.83;;;;;;;;;;5055071;28;20028;-77
2024/03/08 08:37:42;;;;;;;51.55;19.98;;;;;;;;;;5051673;28;20633;-78
2024/03/08 08:40:14;;;;;;;51.25;24.63;;;;;;;;;;5056435;28;20025;-77
2024/03/08 08:42:40;;;;;;;74.68;31.27;;;;;;;;;;5056418;28;20040;-78
2024/03/08 08:45:10;;;;;;;158.63;63.20;;;;;;;;;;5057008;28;20025;-77
2024/03/08 08:47:36;;;;;;;79.78;27.63;;;;;;;;;;5057665;28;20108;-77
2024/03/08 08:50:04;;;;;;;151.88;48.40;;;;;;;;;;5059228;28;20071;-75
2024/03/08 08:52:30;;;;;;;88.40;46.42;;;;;;;;;;5062355;28;20420;-74
2024/03/08 08:54:56;;;;;;;146.82;67.15;;;;;;;;;;5072663;28;20016;-75
2024/03/08 08:57:23;;;;;;;76.35;35.08;;;;;;;;;;5058421;28;20045;-75
2024/03/08 08:59:50;;;;;;;69.45;26.08;;;;;;;;;;5068822;28;20024;-75
2024/03/08 09:02:16;;;;;;;164.60;50.30;;;;;;;;;;5064215;28;20100;-75
2024/03/08 09:04:43;;;;;;;151.77;47.30;;;;;;;;;;5067879;28;20497;-73
2024/03/08 09:07:09;;;;;;;98.70;36.47;;;;;;;;;;5063495;28;20021;-73
2024/03/08 09:09:36;;;;;;;87.32;28.65;;;;;;;;;;5068891;28;20101;-72
2024/03/08 09:12:02;;;;;;;79.60;27.88;;;;;;;;;;5065638;28;20013;-73
2024/03/08 09:14:28;;;;;;;162.80;46.08;;;;;;;;;;5060435;28;20025;-73
2024/03/08 09:16:54;;;;;;;104.07;35.85;;;;;;;;;;5065710;28;20517;-75
2024/03/08 09:19:20;;;;;;;176.93;60.75;;;;;;;;;;5055346;28;20032;-74
2024/03/08 09:21:46;;;;;;;127.32;44.08;;;;;;;;;;5058655;28;20051;-74
2024/03/08 09:24:13;;;;;;;91.03;33.90;;;;;;;;;;5063674;28;20023;-74
2024/03/08 09:26:42;;;;;;;163.57;45.42;;;;;;;;;;5057240;28;20037;-75
2024/03/08 09:29:08;;;;;;;99.10;33.63;;;;;;;;;;5052787;28;20037;-74
2024/03/08 09:31:34;;;;;;;202.13;54.38;;;;;;;;;;5051569;28;20036;-74
2024/03/08 09:34:00;;;;;;;83.82;30.65;;;;;;;;;;5056427;28;20055;-74
2024/03/08 09:36:27;;;;;;;215.32;76.40;;;;;;;;;;5058413;28;20025;-74
2024/03/08 09:38:53;;;;;;;201.60;71.18;;;;;;;;;;5057044;28;20108;-74
2024/03/08 09:41:19;;;;;;;190.50;60.08;;;;;;;;;;5054476;28;20114;-74
2024/03/08 09:43:46;;;;;;;161.00;46.38;;;;;;;;;;5053296;28;20043;-74
2024/03/08 09:46:14;;;;;;;86.32;30.42;;;;;;;;;;5064045;28;20029;-74
2024/03/08 09:48:41;;;;;;;80.72;27.83;;;;;;;;;;5061429;28;20111;-75
2024/03/08 09:51:08;;;;;;;174.93;49.08;;;;;;;;;;5050070;28;20029;-75
2024/03/08 09:53:34;;;;;;;228.57;70.75;;;;;;;;;;5052442;28;20013;-75
2024/03/08 09:56:03;;;;;;;156.98;48.75;;;;;;;;;;5051577;28;20033;-75
2024/03/08 10:01:01;;;;;;;202.40;59.25;;;;;;;;;;5052798;28;20033;-75
2024/03/08 10:03:27;;;;;;;125.18;38.63;;;;;;;;;;5051094;28;20025;-75
2024/03/08 10:05:56;;;;;;;81.60;30.13;;;;;;;;;;5055601;28;20013;-75
2024/03/08 10:08:22;;;;;;;85.97;27.25;;;;;;;;;;5063003;28;20116;-75
2024/03/08 10:10:49;;;;;;;73.30;27.42;;;;;;;;;;5056244;28;20115;-75
2024/03/08 10:13:16;;;;;;;36.20;17.65;;;;;;;;;;5055476;28;20013;-75
2024/03/08 10:15:43;;;;;;;67.07;25.38;;;;;;;;;;5062985;28;20016;-73
2024/03/08 10:18:10;;;;;;;29.63;13.38;;;;;;;;;;5069621;28;20029;-75
2024/03/08 10:20:36;;;;;;;41.33;17.63;;;;;;;;;;5069824;28;20024;-73
2024/03/08 10:23:06;;;;;;;81.90;29.77;;;;;;;;;;5068030;28;20024;-75
2024/03/08 10:25:33;;;;;;;142.75;48.47;;;;;;;;;;5062727;28;20441;-75
2024/03/08 10:27:59;;;;;;;58.55;27.75;;;;;;;;;;5052971;28;20116;-73
2024/03/08 10:30:25;;;;;;;71.80;30.90;;;;;;;;;;5064685;28;20462;-74
2024/03/08 10:32:51;;;;;;;93.82;33.63;;;;;;;;;;5059748;28;20017;-75
2024/03/08 10:35:18;;;;;;;64.40;25.42;;;;;;;;;;5065034;28;20028;-75
2024/03/08 10:37:48;;;;;;;83.53;28.08;;;;;;;;;;5061172;28;20398;-74
2024/03/08 10:40:18;;;;;;;88.55;30.50;;;;;;;;;;5064689;28;20020;-73
2024/03/08 10:42:54;;;;;;;40.33;17.98;;;;;;;;;;5055995;28;20053;-73
2024/03/08 10:45:27;;;;;;;75.82;31.42;;;;;;;;;;5040102;28;20048;-73
2024/03/08 10:48:01;;;;;;;49.33;22.52;;;;;;;;;;5063868;28;20074;-73
2024/03/08 10:50:28;;;;;;;41.05;20.08;;;;;;;;;;5065352;28;20116;-73
2024/03/08 10:52:55;;;;;;;50.90;22.65;;;;;;;;;;5074273;28;20020;-75
2024/03/08 10:55:21;;;;;;;46.97;21.45;;;;;;;;;;5048055;28;20021;-75
2024/03/08 10:57:48;;;;;;;42.13;18.25;;;;;;;;;;5042307;28;20391;-75
2024/03/08 11:00:14;;;;;;;38.10;16.30;;;;;;;;;;5040444;28;20021;-75
2024/03/08 11:02:44;;;;;;;29.55;15.38;;;;;;;;;;5044340;28;20031;-74
2024/03/08 11:05:39;;;;;;;53.92;25.15;;;;;;;;;;5060798;28;20021;-75
2024/03/08 11:08:21;;;;;;;31.73;17.20;;;;;;;;;;5048152;28;20122;-73
2024/03/08 11:10:51;;;;;;;29.48;16.85;;;;;;;;;;5056623;28;20024;-74
2024/03/08 11:13:34;;;;;;;51.28;22.38;;;;;;;;;;5058944;28;20032;-73
2024/03/08 11:16:00;;;;;;;99.50;45.55;;;;;;;;;;5042467;28;20024;-73
2024/03/08 11:18:27;;;;;;;48.30;23.63;;;;;;;;;;5054380;28;20029;-73
2024/03/08 11:20:57;;;;;;;38.88;19.48;;;;;;;;;;5040192;28;20106;-73
2024/03/08 11:23:25;;;;;;;41.95;18.25;;;;;;;;;;5048442;28;20032;-74
2024/03/08 11:25:52;;;;;;;33.05;16.17;;;;;;;;;;5051138;28;20075;-73
2024/03/08 11:28:19;;;;;;;36.17;17.50;;;;;;;;;;5045147;28;20477;-73
2024/03/08 11:30:47;;;;;;;31.77;17.25;;;;;;;;;;5054440;28;20033;-73
2024/03/08 11:33:23;;;;;;;34.75;17.77;;;;;;;;;;5042437;28;20049;-73
2024/03/08 11:35:49;;;;;;;48.53;17.92;;;;;;;;;;5057799;28;20116;-74
2024/03/08 11:38:16;;;;;;;32.80;17.23;;;;;;;;;;5056843;28;20095;-75
2024/03/08 11:40:42;;;;;;;23.75;14.48;;;;;;;;;;5053663;28;20071;-75
2024/03/08 11:43:09;;;;;;;29.33;14.75;;;;;;;;;;5049447;28;20438;-75
2024/03/08 11:45:36;;;;;;;25.85;14.82;;;;;;;;;;5053598;28;20029;-74
2024/03/08 11:48:03;;;;;;;26.45;15.48;;;;;;;;;;5049165;28;20021;-74
2024/03/08 11:50:30;;;;;;;25.38;13.60;;;;;;;;;;5062401;28;20037;-75
2024/03/08 11:53:03;;;;;;;30.58;16.20;;;;;;;;;;5070426;28;20070;-75
2024/03/08 11:55:30;;;;;;;27.77;15.40;;;;;;;;;;5055377;28;20409;-75
2024/03/08 11:58:10;;;;;;;34.15;15.82;;;;;;;;;;5068422;28;20017;-75
2024/03/08 12:00:38;;;;;;;24.00;13.70;;;;;;;;;;5066342;28;20528;-75
2024/03/08 12:03:07;;;;;;;27.67;14.13;;;;;;;;;;5059008;28;20017;-75
2024/03/08 12:05:34;;;;;;;27.10;14.13;;;;;;;;;;5066544;28;20121;-75
2024/03/08 12:08:01;;;;;;;26.83;14.68;;;;;;;;;;5049279;28;20044;-75
2024/03/08 12:10:28;;;;;;;25.67;14.20;;;;;;;;;;5047780;28;20132;-75
2024/03/08 12:12:55;;;;;;;30.60;15.48;;;;;;;;;;5040337;28;20025;-75
2024/03/08 12:15:22;;;;;;;29.20;15.65;;;;;;;;;;5052555;28;20047;-75
2024/03/08 12:17:50;;;;;;;24.73;13.35;;;;;;;;;;5060593;28;20077;-75
2024/03/08 12:20:17;;;;;;;25.77;13.40;;;;;;;;;;5055633;28;20066;-75
2024/03/08 12:22:43;;;;;;;26.98;15.45;;;;;;;;;;5048748;28;20147;-74
2024/03/08 12:25:11;;;;;;;26.45;15.88;;;;;;;;;;5055509;28;20025;-75
2024/03/08 12:27:39;;;;;;;23.42;13.35;;;;;;;;;;5050761;28;20061;-75
2024/03/08 12:30:23;;;;;;;27.17;14.68;;;;;;;;;;5051796;28;20367;-74
2024/03/08 12:32:54;;;;;;;24.55;13.07;;;;;;;;;;5046467;28;20032;-75
2024/03/08 12:35:22;;;;;;;23.50;13.75;;;;;;;;;;5038847;28;20037;-75
2024/03/08 12:37:49;;;;;;;21.90;12.00;;;;;;;;;;5062606;28;20020;-75
2024/03/08 12:40:16;;;;;;;22.35;12.63;;;;;;;;;;5066722;28;21495;-75
2024/03/08 12:42:43;;;;;;;19.38;12.07;;;;;;;;;;5058388;28;20035;-75
2024/03/08 12:45:10;;;;;;;20.08;11.57;;;;;;;;;;5059957;28;20478;-75
2024/03/08 12:47:36;;;;;;;22.73;13.40;;;;;;;;;;5055693;28;20106;-75
2024/03/08 12:50:04;;;;;;;23.75;12.15;;;;;;;;;;5060225;28;20043;-75
2024/03/08 12:52:30;;;;;;;19.63;11.82;;;;;;;;;;5067951;28;20056;-74
2024/03/08 12:54:56;;;;;;;18.77;11.45;;;;;;;;;;5046977;28;20479;-74
2024/03/08 12:57:22;;;;;;;23.55;13.85;;;;;;;;;;5049780;28;20025;-73
2024/03/08 12:59:49;;;;;;;22.40;12.73;;;;;;;;;;5044119;28;20035;-74
2024/03/08 13:02:16;;;;;;;28.13;15.30;;;;;;;;;;5042352;28;20021;-74
2024/03/08 13:04:42;;;;;;;21.65;13.00;;;;;;;;;;5042612;28;20075;-74
2024/03/08 13:07:08;;;;;;;23.83;13.45;;;;;;;;;;5035938;28;20025;-74
2024/03/08 13:09:37;;;;;;;24.27;12.77;;;;;;;;;;5034003;28;20037;-73
2024/03/08 13:12:03;;;;;;;23.27;13.82;;;;;;;;;;5041784;28;20108;-73
2024/03/08 13:14:31;;;;;;;26.13;15.52;;;;;;;;;;5072539;28;20064;-73
2024/03/08 13:16:58;;;;;;;25.50;12.85;;;;;;;;;;5049334;28;20414;-74
2024/03/08 13:19:27;;;;;;;22.52;13.25;;;;;;;;;;5055176;28;20446;-74
2024/03/08 13:21:54;;;;;;;22.98;12.63;;;;;;;;;;5065408;28;20473;-74
2024/03/08 13:24:20;;;;;;;26.98;13.52;;;;;;;;;;5062340;28;20024;-73
2024/03/08 13:26:46;;;;;;;22.17;11.90;;;;;;;;;;5046078;28;20095;-74
2024/03/08 13:29:14;;;;;;;20.42;12.32;;;;;;;;;;5062603;28;20041;-74
2024/03/08 13:31:40;;;;;;;23.45;13.27;;;;;;;;;;5048449;28;20040;-74
2024/03/08 13:34:08;;;;;;;19.98;12.90;;;;;;;;;;5052603;28;20131;-75
2024/03/08 13:36:39;;;;;;;23.98;13.05;;;;;;;;;;5049566;28;20018;-76
2024/03/08 13:39:14;;;;;;;21.48;13.20;;;;;;;;;;5039330;28;20049;-75
2024/03/08 13:41:41;;;;;;;24.33;12.45;;;;;;;;;;5052272;28;20016;-76
2024/03/08 13:44:07;;;;;;;22.85;13.88;;;;;;;;;;5056354;28;20123;-76
2024/03/08 13:46:36;;;;;;;40.55;16.30;;;;;;;;;;5049962;28;20132;-76
2024/03/08 13:49:09;;;;;;;23.67;13.65;;;;;;;;;;5043475;28;20021;-76
2024/03/08 13:51:35;;;;;;;;;;;;;;;;;;5057047;28;20032;-76
2024/03/08 13:54:01;;;;;;;22.38;12.13;;;;;;;;;;5056629;28;19913;-76
2024/03/08 13:56:31;;;;;;;25.63;14.45;;;;;;;;;;5053946;28;20068;-76
2024/03/08 13:58:57;;;;;;;24.23;13.82;;;;;;;;;;5044688;28;20476;-76
2024/03/08 14:01:23;;;;;;;25.77;15.60;;;;;;;;;;5066249;28;20070;-76
2024/03/08 14:03:49;;;;;;;28.55;14.63;;;;;;;;;;5069737;28;20428;-76
2024/03/08 14:06:15;;;;;;;24.98;14.18;;;;;;;;;;5058172;28;20021;-76
2024/03/08 14:08:41;;;;;;;22.70;13.57;;;;;;;;;;5059643;28;20032;-75
2024/03/08 14:11:13;;;;;;;31.60;14.02;;;;;;;;;;5049116;28;20355;-76
2024/03/08 14:13:46;;;;;;;24.63;13.63;;;;;;;;;;5058250;28;20083;-76
2024/03/08 14:16:13;;;;;;;30.17;14.90;;;;;;;;;;5056421;28;20405;-76
2024/03/08 14:18:39;;;;;;;27.40;14.15;;;;;;;;;;5067079;28;20120;-76
2024/03/08 14:21:05;;;;;;;24.67;14.60;;;;;;;;;;5069583;28;20020;-76
2024/03/08 14:23:32;;;;;;;26.48;14.50;;;;;;;;;;5065710;28;20528;-75